createdAt,value
2023-03-06T00:04:48.322Z,4.30
2023-03-06T00:09:52.031Z,3.10
2023-03-06T00:14:55.916Z,4.75
2023-03-06T00:20:01.048Z,4.28
2023-03-06T00:25:05.551Z,4.05
2023-03-06T00:30:11.726Z,4.90
2023-03-06T00:35:17.673Z,4.87
2023-03-06T00:40:22.718Z,6.40
2023-03-06T00:45:26.494Z,5.25
2023-03-06T00:50:31.685Z,7.12
2023-03-06T00:55:36.480Z,6.25
2023-03-06T01:00:40.326Z,6.40
2023-03-06T01:05:45.547Z,7.10
2023-03-06T01:10:49.265Z,6.95
2023-03-06T01:15:53.003Z,6.40
2023-03-06T01:20:58.773Z,7.22
2023-03-06T01:26:02.696Z,7.22
2023-03-06T01:31:07.154Z,7.43
2023-03-06T01:36:13.890Z,6.85
2023-03-06T01:41:18.081Z,7.57
2023-03-06T01:46:31.488Z,6.32
2023-03-06T01:51:39.925Z,7.18
2023-03-06T01:56:46.783Z,6.93
2023-03-06T02:01:52.172Z,5.40
2023-03-06T02:06:59.643Z,6.90
2023-03-06T02:12:07.447Z,6.68
2023-03-06T02:17:13.618Z,7.35
2023-03-06T02:22:18.714Z,6.87
2023-03-06T02:27:25.097Z,7.28
2023-03-06T02:32:30.176Z,7.15
2023-03-06T02:37:34.013Z,7.47
2023-03-06T02:42:39.325Z,7.05
2023-03-06T02:47:43.129Z,6.65
2023-03-06T02:52:46.880Z,7.05
2023-03-06T02:57:52.000Z,6.80
2023-03-06T03:02:56.635Z,7.85
2023-03-06T03:08:00.600Z,7.30
2023-03-06T03:13:06.684Z,7.15
2023-03-06T03:18:11.780Z,7.68
2023-03-06T03:23:15.562Z,8.70
2023-03-06T03:28:21.084Z,7.85
2023-03-06T03:33:25.112Z,8.98
2023-03-06T03:38:29.933Z,10.02
2023-03-06T03:43:35.319Z,10.80
2023-03-06T03:48:39.185Z,11.32
2023-03-06T03:53:44.351Z,11.85
2023-03-06T03:58:51.340Z,12.37
2023-03-06T04:03:55.680Z,12.52
2023-03-06T04:08:59.911Z,14.48
2023-03-06T04:14:05.344Z,14.45
2023-03-06T04:19:09.185Z,13.32
2023-03-06T04:24:13.156Z,15.05
2023-03-06T04:29:18.345Z,16.00
2023-03-06T04:34:22.745Z,15.95
2023-03-06T04:39:26.454Z,17.45
2023-03-06T04:44:32.456Z,17.20
2023-03-06T04:49:36.163Z,18.67
2023-03-06T04:54:39.917Z,19.17
2023-03-06T04:59:44.988Z,17.60
2023-03-06T05:04:48.687Z,18.55
2023-03-06T05:09:52.408Z,25.02
2023-03-06T05:14:58.734Z,20.23
2023-03-06T05:20:02.423Z,22.80
2023-03-06T05:25:06.926Z,24.15
2023-03-06T05:30:15.195Z,22.45
2023-03-06T05:35:20.656Z,23.42
2023-03-06T05:40:24.412Z,22.05
2023-03-06T05:45:29.497Z,21.35
2023-03-06T05:50:33.189Z,21.73
2023-03-06T05:55:37.032Z,23.45
2023-03-06T06:00:42.156Z,22.73
2023-03-06T06:05:45.906Z,21.67
2023-03-06T06:10:52.814Z,24.10
2023-03-06T06:15:58.485Z,22.33
2023-03-06T06:21:05.953Z,22.98
2023-03-06T06:26:10.697Z,23.98
2023-03-06T06:31:15.790Z,24.73
2023-03-06T06:36:21.203Z,27.00
2023-03-06T06:52:14.507Z,26.85
2023-03-06T06:57:18.449Z,26.92
2023-03-06T07:02:24.104Z,28.52
2023-03-06T07:07:27.856Z,29.02
2023-03-06T07:12:32.859Z,30.33
2023-03-06T07:17:38.089Z,28.40
2023-03-06T07:22:50.775Z,30.50
2023-03-06T07:27:56.349Z,30.05
2023-03-06T07:33:01.600Z,29.85
2023-03-06T07:38:05.290Z,30.42
2023-03-06T07:43:18.857Z,28.70
2023-03-06T07:48:25.536Z,29.10
2023-03-06T07:53:29.956Z,29.05
2023-03-06T07:58:33.716Z,29.92
2023-03-06T08:03:39.299Z,28.67
2023-03-06T08:08:45.884Z,27.27
2023-03-06T08:13:52.576Z,27.40
2023-03-06T08:18:58.360Z,26.15
2023-03-06T08:24:02.070Z,28.45
2023-03-06T08:29:06.092Z,26.60
2023-03-06T08:34:13.801Z,26.40
2023-03-06T08:39:17.573Z,26.02
2023-03-06T08:44:21.316Z,26.33
2023-03-06T08:49:26.426Z,26.20
2023-03-06T08:54:30.132Z,24.70
2023-03-06T08:59:33.928Z,24.58
2023-03-06T09:04:39.004Z,24.45
2023-03-06T09:09:42.741Z,24.85
2023-03-06T09:14:46.496Z,25.60
2023-03-06T09:19:52.439Z,26.35
2023-03-06T09:24:56.352Z,25.37
2023-03-06T09:30:00.121Z,25.58
2023-03-06T09:35:05.656Z,23.42
2023-03-06T09:40:17.715Z,25.08
2023-03-06T09:45:21.841Z,24.08
2023-03-06T09:50:33.499Z,21.40
2023-03-06T09:55:39.677Z,20.60
2023-03-06T10:00:49.015Z,19.42
2023-03-06T10:06:02.537Z,17.02
2023-03-06T10:11:09.745Z,14.48
2023-03-06T10:16:28.121Z,19.12
2023-03-06T10:21:44.578Z,18.58
2023-03-06T10:26:53.651Z,18.65
2023-03-06T10:32:05.682Z,20.15
2023-03-06T10:37:20.048Z,15.40
2023-03-06T10:42:24.818Z,17.08
2023-03-06T10:47:31.390Z,10.93
2023-03-06T10:52:37.228Z,7.37
2023-03-06T10:57:41.076Z,6.90
2023-03-06T11:02:44.906Z,7.97
2023-03-06T11:07:57.222Z,7.78
2023-03-06T11:13:02.803Z,8.73
2023-03-06T11:18:31.043Z,10.27
2023-03-06T11:28:47.103Z,10.10
2023-03-06T11:33:55.924Z,8.15
2023-03-06T11:39:01.195Z,8.02
2023-03-06T11:44:15.274Z,7.80
2023-03-06T11:49:25.407Z,8.95
2023-03-06T11:54:30.492Z,12.10
2023-03-06T11:59:51.110Z,7.78
2023-03-06T12:05:03.226Z,6.40
2023-03-06T12:10:17.953Z,7.75
2023-03-06T12:15:36.038Z,7.85
2023-03-06T12:20:57.854Z,10.45
2023-03-06T12:26:12.173Z,11.43
2023-03-06T12:31:37.749Z,10.60
2023-03-06T12:36:53.354Z,11.32
2023-03-06T12:42:22.687Z,12.98
2023-03-06T12:47:29.323Z,11.95
2023-03-06T12:52:34.921Z,10.70
2023-03-06T12:57:41.680Z,10.05
2023-03-06T13:03:01.967Z,11.02
2023-03-06T13:08:26.397Z,11.18
2023-03-06T13:13:34.335Z,12.43
2023-03-06T13:19:03.132Z,12.15
2023-03-06T13:24:15.745Z,11.50
2023-03-06T13:29:58.354Z,11.63
2023-03-06T13:35:24.842Z,11.02
2023-03-06T13:40:34.710Z,12.00
2023-03-06T13:45:41.933Z,11.60
2023-03-06T13:50:48.191Z,11.63
2023-03-06T13:56:08.362Z,12.60
2023-03-06T14:01:28.974Z,10.50
2023-03-06T14:06:54.524Z,10.77
2023-03-06T14:12:03.464Z,10.43
2023-03-06T14:17:07.534Z,10.48
2023-03-06T14:22:19.832Z,9.70
2023-03-06T14:27:39.408Z,9.30
2023-03-06T14:32:43.654Z,10.85
2023-03-06T14:37:53.064Z,12.02
2023-03-06T14:43:22.139Z,12.18
2023-03-06T14:48:27.916Z,12.90
2023-03-06T14:53:34.683Z,13.40
2023-03-06T14:58:46.142Z,14.05
2023-03-06T15:03:51.925Z,13.10
2023-03-06T15:09:02.113Z,14.05
2023-03-06T15:14:06.611Z,14.85
2023-03-06T15:19:19.548Z,14.45
2023-03-06T15:24:36.204Z,16.48
2023-03-06T15:29:40.360Z,15.45
2023-03-06T15:34:44.163Z,15.40
2023-03-06T15:40:06.272Z,16.10
2023-03-06T15:45:16.861Z,15.27
2023-03-06T15:50:23.125Z,16.60
2023-03-06T15:55:28.202Z,18.55
2023-03-06T16:00:35.140Z,17.17
2023-03-06T16:05:39.090Z,16.23
2023-03-06T16:10:46.807Z,17.20
2023-03-06T16:15:51.856Z,17.73
2023-03-06T16:20:55.562Z,17.05
2023-03-06T16:26:00.621Z,17.40
2023-03-06T16:31:04.482Z,19.08
2023-03-06T16:36:13.424Z,15.43
2023-03-06T16:41:19.745Z,16.52
2023-03-06T16:46:26.166Z,17.25
2023-03-06T16:51:40.468Z,18.00
2023-03-06T16:56:45.854Z,17.42
2023-03-06T17:01:49.618Z,17.92
2023-03-06T17:06:53.657Z,18.20
2023-03-06T17:11:58.909Z,19.42
2023-03-06T17:17:02.674Z,19.02
2023-03-06T17:22:06.587Z,21.55
2023-03-06T17:27:11.846Z,18.92
2023-03-06T17:32:16.078Z,17.05
2023-03-06T17:37:20.204Z,17.80
2023-03-06T17:42:25.292Z,16.67
2023-03-06T17:47:29.076Z,17.30
2023-03-06T17:52:33.391Z,17.83
2023-03-06T17:57:38.505Z,15.55
2023-03-06T18:02:42.197Z,16.05
2023-03-06T18:07:45.907Z,15.65
2023-03-06T18:12:51.230Z,17.08
2023-03-06T18:17:56.601Z,16.92
2023-03-06T18:23:03.501Z,18.15
2023-03-06T18:28:08.782Z,17.50
2023-03-06T18:33:12.850Z,18.70
2023-03-06T18:38:16.577Z,18.58
2023-03-06T18:43:21.670Z,18.95
2023-03-06T18:48:25.928Z,18.00
2023-03-06T18:53:29.760Z,19.25
2023-03-06T18:58:34.893Z,18.55
2023-03-06T19:03:38.995Z,21.25
2023-03-06T19:08:42.907Z,20.08
2023-03-06T19:13:47.991Z,21.48
2023-03-06T19:18:52.470Z,21.15
2023-03-06T19:23:56.675Z,22.48
2023-03-06T19:29:01.813Z,21.73
2023-03-06T19:34:05.646Z,22.27
2023-03-06T19:39:09.618Z,22.08
2023-03-06T19:44:16.274Z,23.23
2023-03-06T19:49:22.247Z,22.05
2023-03-06T19:54:26.946Z,23.77
2023-03-06T19:59:32.355Z,23.12
2023-03-06T20:04:36.209Z,23.70
2023-03-06T20:09:39.979Z,23.95
2023-03-06T20:14:46.015Z,23.08
2023-03-06T20:19:49.738Z,22.90
2023-03-06T20:24:53.583Z,23.10
2023-03-06T20:29:58.720Z,24.70
2023-03-06T20:35:02.454Z,24.27
2023-03-06T20:40:07.799Z,23.17
2023-03-06T20:45:12.977Z,22.08
2023-03-06T20:50:16.952Z,21.73
2023-03-06T20:55:20.669Z,23.75
2023-03-06T21:00:25.774Z,23.15
2023-03-06T21:05:29.449Z,21.70
2023-03-06T21:10:33.122Z,22.30
2023-03-06T21:15:40.807Z,23.90
2023-03-06T21:20:44.689Z,21.65
2023-03-06T21:25:48.840Z,23.75
2023-03-06T21:30:53.877Z,22.37
2023-03-06T21:35:57.629Z,16.20
2023-03-06T21:41:07.875Z,11.93
2023-03-06T21:46:13.099Z,12.30
2023-03-06T21:51:19.354Z,10.75
2023-03-06T21:56:25.482Z,9.93
2023-03-06T22:01:31.294Z,9.60
2023-03-06T22:06:35.472Z,7.75
2023-03-06T22:11:39.474Z,8.00
2023-03-06T22:16:44.691Z,8.75
2023-03-06T22:21:48.569Z,9.60
2023-03-06T22:26:52.383Z,10.70
2023-03-06T22:31:57.512Z,12.45
2023-03-06T22:37:01.582Z,11.98
2023-03-06T22:42:05.909Z,9.93
2023-03-06T22:47:11.065Z,10.82
2023-03-06T22:52:15.333Z,9.45
2023-03-06T22:57:19.073Z,9.65
2023-03-06T23:02:24.218Z,8.30
2023-03-06T23:07:27.870Z,8.32
2023-03-06T23:12:37.100Z,5.32
2023-03-06T23:18:00.368Z,5.37
2023-03-06T23:23:22.717Z,4.45
2023-03-06T23:28:26.290Z,5.20
2023-03-06T23:33:31.310Z,4.75
2023-03-06T23:38:35.662Z,4.10
2023-03-06T23:43:39.942Z,4.18
2023-03-06T23:48:46.060Z,3.33
2023-03-06T23:53:55.554Z,3.85
2023-03-06T23:58:59.242Z,2.47
